sensor_id;sensor_type;location;lat;lon;timestamp;P1;durP1;ratioP1;P2;durP2;ratioP2
22786;SDS011;63134;52.020;4.714;2023-03-01T00:02:37;34.40;;;22.83;;
22786;SDS011;63134;52.020;4.714;2023-03-01T00:05:22;42.08;;;23.75;;
22786;SDS011;63134;52.020;4.714;2023-03-01T00:08:08;38.85;;;25.95;;
22786;SDS011;63134;52.020;4.714;2023-03-01T00:11:00;41.65;;;24.08;;
22786;SDS011;63134;52.020;4.714;2023-03-01T00:13:56;43.60;;;26.63;;
22786;SDS011;63134;52.020;4.714;2023-03-01T00:16:43;41.08;;;25.13;;
22786;SDS011;63134;52.020;4.714;2023-03-01T00:19:35;39.70;;;24.52;;
22786;SDS011;63134;52.020;4.714;2023-03-01T00:22:23;46.97;;;26.73;;
22786;SDS011;63134;52.020;4.714;2023-03-01T00:25:08;41.88;;;26.35;;
22786;SDS011;63134;52.020;4.714;2023-03-01T00:27:54;41.38;;;26.60;;
22786;SDS011;63134;52.020;4.714;2023-03-01T00:30:41;49.72;;;29.20;;
22786;SDS011;63134;52.020;4.714;2023-03-01T00:33:27;45.08;;;26.65;;
22786;SDS011;63134;52.020;4.714;2023-03-01T00:36:13;50.75;;;28.55;;
22786;SDS011;63134;52.020;4.714;2023-03-01T00:38:59;48.58;;;29.67;;
22786;SDS011;63134;52.020;4.714;2023-03-01T00:41:45;48.63;;;28.45;;
22786;SDS011;63134;52.020;4.714;2023-03-01T00:44:31;47.58;;;29.73;;
22786;SDS011;63134;52.020;4.714;2023-03-01T00:47:16;56.28;;;30.95;;
22786;SDS011;63134;52.020;4.714;2023-03-01T00:50:02;51.83;;;28.15;;
22786;SDS011;63134;52.020;4.714;2023-03-01T00:52:51;51.78;;;28.15;;
22786;SDS011;63134;52.020;4.714;2023-03-01T00:55:39;54.03;;;30.17;;
22786;SDS011;63134;52.020;4.714;2023-03-01T00:58:24;60.67;;;34.40;;
22786;SDS011;63134;52.020;4.714;2023-03-01T01:01:11;56.65;;;30.88;;
22786;SDS011;63134;52.020;4.714;2023-03-01T01:04:06;55.43;;;33.73;;
22786;SDS011;63134;52.020;4.714;2023-03-01T01:06:54;70.22;;;38.47;;
22786;SDS011;63134;52.020;4.714;2023-03-01T01:09:46;65.82;;;38.28;;
22786;SDS011;63134;52.020;4.714;2023-03-01T01:12:34;66.68;;;36.00;;
22786;SDS011;63134;52.020;4.714;2023-03-01T01:15:23;72.45;;;37.95;;
22786;SDS011;63134;52.020;4.714;2023-03-01T01:18:08;74.55;;;41.17;;
22786;SDS011;63134;52.020;4.714;2023-03-01T01:20:54;82.03;;;41.55;;
22786;SDS011;63134;52.020;4.714;2023-03-01T01:23:42;78.75;;;44.22;;
22786;SDS011;63134;52.020;4.714;2023-03-01T01:26:30;74.43;;;40.05;;
22786;SDS011;63134;52.020;4.714;2023-03-01T01:29:18;84.25;;;43.92;;
22786;SDS011;63134;52.020;4.714;2023-03-01T01:32:03;80.28;;;41.35;;
22786;SDS011;63134;52.020;4.714;2023-03-01T01:34:50;79.00;;;40.38;;
22786;SDS011;63134;52.020;4.714;2023-03-01T01:37:36;87.10;;;42.35;;
22786;SDS011;63134;52.020;4.714;2023-03-01T01:40:21;82.82;;;42.63;;
22786;SDS011;63134;52.020;4.714;2023-03-01T01:43:10;93.43;;;48.03;;
22786;SDS011;63134;52.020;4.714;2023-03-01T01:52:34;91.80;;;42.17;;
22786;SDS011;63134;52.020;4.714;2023-03-01T01:55:23;99.72;;;50.92;;
22786;SDS011;63134;52.020;4.714;2023-03-01T01:58:17;84.55;;;40.53;;
22786;SDS011;63134;52.020;4.714;2023-03-01T02:01:06;95.10;;;49.22;;
22786;SDS011;63134;52.020;4.714;2023-03-01T02:03:52;93.00;;;45.05;;
22786;SDS011;63134;52.020;4.714;2023-03-01T02:06:39;95.35;;;49.67;;
22786;SDS011;63134;52.020;4.714;2023-03-01T02:09:38;82.97;;;47.17;;
22786;SDS011;63134;52.020;4.714;2023-03-01T02:12:28;80.93;;;45.33;;
22786;SDS011;63134;52.020;4.714;2023-03-01T02:15:14;83.47;;;43.20;;
22786;SDS011;63134;52.020;4.714;2023-03-01T02:17:59;80.78;;;42.40;;
22786;SDS011;63134;52.020;4.714;2023-03-01T02:23:59;86.18;;;45.67;;
22786;SDS011;63134;52.020;4.714;2023-03-01T02:26:55;79.80;;;45.13;;
22786;SDS011;63134;52.020;4.714;2023-03-01T02:29:41;79.28;;;42.72;;
22786;SDS011;63134;52.020;4.714;2023-03-01T02:32:28;72.57;;;42.63;;
22786;SDS011;63134;52.020;4.714;2023-03-01T02:35:14;62.58;;;39.60;;
22786;SDS011;63134;52.020;4.714;2023-03-01T02:38:03;74.65;;;40.78;;
22786;SDS011;63134;52.020;4.714;2023-03-01T02:40:52;72.85;;;41.13;;
22786;SDS011;63134;52.020;4.714;2023-03-01T02:43:40;62.13;;;36.08;;
22786;SDS011;63134;52.020;4.714;2023-03-01T02:46:26;67.90;;;39.05;;
22786;SDS011;63134;52.020;4.714;2023-03-01T02:49:23;67.40;;;37.90;;
22786;SDS011;63134;52.020;4.714;2023-03-01T02:55:21;60.30;;;37.17;;
22786;SDS011;63134;52.020;4.714;2023-03-01T02:58:18;61.08;;;37.75;;
22786;SDS011;63134;52.020;4.714;2023-03-01T03:01:08;64.30;;;36.95;;
22786;SDS011;63134;52.020;4.714;2023-03-01T03:03:54;59.97;;;37.25;;
22786;SDS011;63134;52.020;4.714;2023-03-01T03:06:47;57.40;;;36.03;;
22786;SDS011;63134;52.020;4.714;2023-03-01T03:09:34;55.63;;;33.60;;
22786;SDS011;63134;52.020;4.714;2023-03-01T03:12:19;59.15;;;33.35;;
22786;SDS011;63134;52.020;4.714;2023-03-01T03:15:08;56.47;;;36.72;;
22786;SDS011;63134;52.020;4.714;2023-03-01T03:17:58;58.10;;;35.17;;
22786;SDS011;63134;52.020;4.714;2023-03-01T03:20:44;55.58;;;34.65;;
22786;SDS011;63134;52.020;4.714;2023-03-01T03:23:29;56.15;;;36.13;;
22786;SDS011;63134;52.020;4.714;2023-03-01T03:26:16;59.03;;;35.75;;
22786;SDS011;63134;52.020;4.714;2023-03-01T03:29:01;56.85;;;36.03;;
22786;SDS011;63134;52.020;4.714;2023-03-01T03:31:49;57.13;;;36.05;;
22786;SDS011;63134;52.020;4.714;2023-03-01T03:34:35;63.03;;;37.60;;
22786;SDS011;63134;52.020;4.714;2023-03-01T03:37:20;66.40;;;38.88;;
22786;SDS011;63134;52.020;4.714;2023-03-01T03:40:24;60.53;;;39.63;;
22786;SDS011;63134;52.020;4.714;2023-03-01T03:43:13;65.80;;;38.38;;
22786;SDS011;63134;52.020;4.714;2023-03-01T03:45:59;65.13;;;38.45;;
22786;SDS011;63134;52.020;4.714;2023-03-01T03:48:45;72.57;;;40.45;;
22786;SDS011;63134;52.020;4.714;2023-03-01T03:51:30;75.57;;;41.95;;
22786;SDS011;63134;52.020;4.714;2023-03-01T03:54:16;66.20;;;41.13;;
22786;SDS011;63134;52.020;4.714;2023-03-01T03:57:05;66.22;;;41.95;;
22786;SDS011;63134;52.020;4.714;2023-03-01T03:59:50;74.88;;;42.13;;
22786;SDS011;63134;52.020;4.714;2023-03-01T04:02:36;68.22;;;40.75;;
22786;SDS011;63134;52.020;4.714;2023-03-01T04:05:24;70.80;;;41.65;;
22786;SDS011;63134;52.020;4.714;2023-03-01T04:08:10;71.57;;;42.05;;
22786;SDS011;63134;52.020;4.714;2023-03-01T04:10:57;75.28;;;43.15;;
22786;SDS011;63134;52.020;4.714;2023-03-01T04:14:06;79.28;;;44.03;;
22786;SDS011;63134;52.020;4.714;2023-03-01T04:16:51;80.75;;;46.03;;
22786;SDS011;63134;52.020;4.714;2023-03-01T04:19:37;80.75;;;45.33;;
22786;SDS011;63134;52.020;4.714;2023-03-01T04:22:23;76.43;;;42.20;;
22786;SDS011;63134;52.020;4.714;2023-03-01T04:25:14;96.53;;;46.33;;
22786;SDS011;63134;52.020;4.714;2023-03-01T04:28:00;79.45;;;40.47;;
22786;SDS011;63134;52.020;4.714;2023-03-01T04:30:45;77.68;;;44.58;;
22786;SDS011;63134;52.020;4.714;2023-03-01T04:33:30;76.90;;;45.13;;
22786;SDS011;63134;52.020;4.714;2023-03-01T04:36:16;79.40;;;45.08;;
22786;SDS011;63134;52.020;4.714;2023-03-01T04:39:04;78.30;;;43.63;;
22786;SDS011;63134;52.020;4.714;2023-03-01T04:41:58;73.78;;;42.92;;
22786;SDS011;63134;52.020;4.714;2023-03-01T04:44:45;72.32;;;42.25;;
22786;SDS011;63134;52.020;4.714;2023-03-01T04:47:30;74.18;;;43.28;;
22786;SDS011;63134;52.020;4.714;2023-03-01T04:50:16;71.68;;;41.42;;
22786;SDS011;63134;52.020;4.714;2023-03-01T04:53:05;68.22;;;41.40;;
22786;SDS011;63134;52.020;4.714;2023-03-01T04:55:50;73.85;;;42.40;;
22786;SDS011;63134;52.020;4.714;2023-03-01T04:58:36;74.60;;;44.42;;
22786;SDS011;63134;52.020;4.714;2023-03-01T05:01:21;79.95;;;42.97;;
22786;SDS011;63134;52.020;4.714;2023-03-01T05:04:07;75.60;;;41.67;;
22786;SDS011;63134;52.020;4.714;2023-03-01T05:06:59;75.30;;;40.97;;
22786;SDS011;63134;52.020;4.714;2023-03-01T05:09:45;73.53;;;41.92;;
22786;SDS011;63134;52.020;4.714;2023-03-01T05:12:31;77.03;;;43.30;;
22786;SDS011;63134;52.020;4.714;2023-03-01T05:15:16;75.60;;;42.25;;
22786;SDS011;63134;52.020;4.714;2023-03-01T05:18:05;77.05;;;42.78;;
22786;SDS011;63134;52.020;4.714;2023-03-01T05:20:56;77.57;;;41.78;;
22786;SDS011;63134;52.020;4.714;2023-03-01T05:23:56;77.40;;;42.58;;
22786;SDS011;63134;52.020;4.714;2023-03-01T05:26:42;69.45;;;38.92;;
22786;SDS011;63134;52.020;4.714;2023-03-01T05:29:28;75.90;;;43.00;;
22786;SDS011;63134;52.020;4.714;2023-03-01T05:32:15;70.15;;;40.63;;
22786;SDS011;63134;52.020;4.714;2023-03-01T05:35:01;72.75;;;40.42;;
22786;SDS011;63134;52.020;4.714;2023-03-01T05:37:47;63.75;;;39.05;;
22786;SDS011;63134;52.020;4.714;2023-03-01T05:40:34;59.40;;;36.30;;
22786;SDS011;63134;52.020;4.714;2023-03-01T05:43:20;58.72;;;34.97;;
22786;SDS011;63134;52.020;4.714;2023-03-01T05:46:06;53.25;;;32.08;;
22786;SDS011;63134;52.020;4.714;2023-03-01T05:48:51;54.65;;;33.70;;
22786;SDS011;63134;52.020;4.714;2023-03-01T05:51:36;44.55;;;29.65;;
22786;SDS011;63134;52.020;4.714;2023-03-01T05:54:22;44.10;;;29.35;;
22786;SDS011;63134;52.020;4.714;2023-03-01T05:57:09;43.17;;;28.48;;
22786;SDS011;63134;52.020;4.714;2023-03-01T05:59:55;34.00;;;24.83;;
22786;SDS011;63134;52.020;4.714;2023-03-01T06:02:41;37.45;;;25.65;;
22786;SDS011;63134;52.020;4.714;2023-03-01T06:05:26;40.80;;;24.77;;
22786;SDS011;63134;52.020;4.714;2023-03-01T06:08:12;38.70;;;26.35;;
22786;SDS011;63134;52.020;4.714;2023-03-01T06:10:59;39.42;;;26.02;;
22786;SDS011;63134;52.020;4.714;2023-03-01T06:13:45;39.13;;;25.02;;
22786;SDS011;63134;52.020;4.714;2023-03-01T06:16:31;40.45;;;24.58;;
22786;SDS011;63134;52.020;4.714;2023-03-01T06:19:17;47.40;;;28.73;;
22786;SDS011;63134;52.020;4.714;2023-03-01T06:22:02;45.33;;;29.35;;
22786;SDS011;63134;52.020;4.714;2023-03-01T06:24:47;52.08;;;32.13;;
22786;SDS011;63134;52.020;4.714;2023-03-01T06:27:33;55.90;;;34.88;;
22786;SDS011;63134;52.020;4.714;2023-03-01T06:30:19;52.67;;;32.95;;
22786;SDS011;63134;52.020;4.714;2023-03-01T06:33:05;60.38;;;33.42;;
22786;SDS011;63134;52.020;4.714;2023-03-01T06:35:51;58.55;;;35.47;;
22786;SDS011;63134;52.020;4.714;2023-03-01T06:38:42;68.55;;;38.47;;
22786;SDS011;63134;52.020;4.714;2023-03-01T06:41:29;67.60;;;39.83;;
22786;SDS011;63134;52.020;4.714;2023-03-01T06:44:15;70.50;;;41.33;;
22786;SDS011;63134;52.020;4.714;2023-03-01T06:47:01;67.07;;;40.30;;
22786;SDS011;63134;52.020;4.714;2023-03-01T06:49:47;66.93;;;40.00;;
22786;SDS011;63134;52.020;4.714;2023-03-01T06:52:32;66.22;;;39.58;;
22786;SDS011;63134;52.020;4.714;2023-03-01T06:55:18;57.05;;;37.17;;
22786;SDS011;63134;52.020;4.714;2023-03-01T06:58:03;55.63;;;37.10;;
22786;SDS011;63134;52.020;4.714;2023-03-01T07:00:49;55.92;;;33.42;;
22786;SDS011;63134;52.020;4.714;2023-03-01T07:03:34;57.35;;;34.92;;
22786;SDS011;63134;52.020;4.714;2023-03-01T07:06:20;54.95;;;32.92;;
22786;SDS011;63134;52.020;4.714;2023-03-01T07:09:06;53.88;;;32.58;;
22786;SDS011;63134;52.020;4.714;2023-03-01T07:11:53;53.00;;;32.38;;
22786;SDS011;63134;52.020;4.714;2023-03-01T07:14:41;46.85;;;30.42;;
22786;SDS011;63134;52.020;4.714;2023-03-01T07:17:28;49.65;;;29.40;;
22786;SDS011;63134;52.020;4.714;2023-03-01T07:20:14;45.88;;;30.20;;
22786;SDS011;63134;52.020;4.714;2023-03-01T07:22:59;45.72;;;28.83;;
22786;SDS011;63134;52.020;4.714;2023-03-01T07:25:51;43.78;;;29.42;;
22786;SDS011;63134;52.020;4.714;2023-03-01T07:28:37;46.63;;;28.33;;
22786;SDS011;63134;52.020;4.714;2023-03-01T07:31:24;44.50;;;29.88;;
22786;SDS011;63134;52.020;4.714;2023-03-01T07:34:12;44.20;;;30.70;;
22786;SDS011;63134;52.020;4.714;2023-03-01T07:37:00;39.55;;;26.95;;
22786;SDS011;63134;52.020;4.714;2023-03-01T07:39:46;40.22;;;25.42;;
22786;SDS011;63134;52.020;4.714;2023-03-01T07:42:31;37.50;;;25.98;;
22786;SDS011;63134;52.020;4.714;2023-03-01T07:45:17;38.45;;;25.40;;
22786;SDS011;63134;52.020;4.714;2023-03-01T07:48:08;33.30;;;23.20;;
22786;SDS011;63134;52.020;4.714;2023-03-01T07:50:53;37.55;;;23.50;;
22786;SDS011;63134;52.020;4.714;2023-03-01T07:53:39;30.02;;;21.25;;
22786;SDS011;63134;52.020;4.714;2023-03-01T07:56:24;33.10;;;20.38;;
22786;SDS011;63134;52.020;4.714;2023-03-01T07:59:10;32.67;;;19.90;;
22786;SDS011;63134;52.020;4.714;2023-03-01T08:01:56;30.52;;;19.17;;
22786;SDS011;63134;52.020;4.714;2023-03-01T08:04:42;31.55;;;17.05;;
22786;SDS011;63134;52.020;4.714;2023-03-01T08:07:27;28.10;;;15.93;;
22786;SDS011;63134;52.020;4.714;2023-03-01T08:10:13;22.98;;;15.98;;
22786;SDS011;63134;52.020;4.714;2023-03-01T08:12:58;25.95;;;15.40;;
22786;SDS011;63134;52.020;4.714;2023-03-01T08:15:44;23.15;;;14.15;;
22786;SDS011;63134;52.020;4.714;2023-03-01T08:18:29;18.00;;;11.07;;
22786;SDS011;63134;52.020;4.714;2023-03-01T08:21:17;22.45;;;11.63;;
22786;SDS011;63134;52.020;4.714;2023-03-01T08:24:03;21.42;;;13.20;;
22786;SDS011;63134;52.020;4.714;2023-03-01T08:26:52;22.15;;;11.77;;
22786;SDS011;63134;52.020;4.714;2023-03-01T08:29:39;16.55;;;11.35;;
22786;SDS011;63134;52.020;4.714;2023-03-01T08:32:24;17.42;;;11.60;;
22786;SDS011;63134;52.020;4.714;2023-03-01T08:35:13;19.88;;;12.35;;
22786;SDS011;63134;52.020;4.714;2023-03-01T08:37:58;20.02;;;11.00;;
22786;SDS011;63134;52.020;4.714;2023-03-01T08:40:49;20.00;;;10.88;;
22786;SDS011;63134;52.020;4.714;2023-03-01T08:43:38;17.15;;;10.25;;
22786;SDS011;63134;52.020;4.714;2023-03-01T08:46:26;15.98;;;10.75;;
22786;SDS011;63134;52.020;4.714;2023-03-01T08:49:15;17.83;;;11.75;;
22786;SDS011;63134;52.020;4.714;2023-03-01T08:52:07;16.52;;;11.07;;
22786;SDS011;63134;52.020;4.714;2023-03-01T08:54:52;17.38;;;10.93;;
22786;SDS011;63134;52.020;4.714;2023-03-01T08:57:38;15.00;;;11.25;;
22786;SDS011;63134;52.020;4.714;2023-03-01T09:00:23;15.60;;;10.50;;
22786;SDS011;63134;52.020;4.714;2023-03-01T09:03:09;15.35;;;11.68;;
22786;SDS011;63134;52.020;4.714;2023-03-01T09:05:59;19.75;;;10.68;;
22786;SDS011;63134;52.020;4.714;2023-03-01T09:08:47;14.65;;;10.02;;
22786;SDS011;63134;52.020;4.714;2023-03-01T09:11:33;13.98;;;9.43;;
22786;SDS011;63134;52.020;4.714;2023-03-01T09:14:19;10.57;;;8.57;;
22786;SDS011;63134;52.020;4.714;2023-03-01T09:17:04;13.90;;;9.65;;
22786;SDS011;63134;52.020;4.714;2023-03-01T09:19:50;15.77;;;8.98;;
22786;SDS011;63134;52.020;4.714;2023-03-01T09:22:35;18.85;;;9.40;;
22786;SDS011;63134;52.020;4.714;2023-03-01T09:25:21;12.93;;;9.55;;
22786;SDS011;63134;52.020;4.714;2023-03-01T09:28:06;14.18;;;9.40;;
22786;SDS011;63134;52.020;4.714;2023-03-01T09:30:59;13.75;;;9.02;;
22786;SDS011;63134;52.020;4.714;2023-03-01T09:33:46;16.75;;;8.27;;
22786;SDS011;63134;52.020;4.714;2023-03-01T09:36:33;20.10;;;9.35;;
22786;SDS011;63134;52.020;4.714;2023-03-01T09:39:21;13.38;;;8.68;;
22786;SDS011;63134;52.020;4.714;2023-03-01T09:42:11;16.15;;;9.57;;
22786;SDS011;63134;52.020;4.714;2023-03-01T09:47:44;14.38;;;10.30;;
22786;SDS011;63134;52.020;4.714;2023-03-01T09:50:34;16.33;;;11.13;;
22786;SDS011;63134;52.020;4.714;2023-03-01T09:53:26;16.13;;;11.07;;
22786;SDS011;63134;52.020;4.714;2023-03-01T09:56:19;16.27;;;10.98;;
22786;SDS011;63134;52.020;4.714;2023-03-01T10:05:50;16.58;;;11.05;;
22786;SDS011;63134;52.020;4.714;2023-03-01T10:08:55;17.90;;;11.00;;
22786;SDS011;63134;52.020;4.714;2023-03-01T10:11:50;18.23;;;10.82;;
22786;SDS011;63134;52.020;4.714;2023-03-01T10:17:30;13.02;;;9.50;;
22786;SDS011;63134;52.020;4.714;2023-03-01T10:23:39;15.75;;;8.73;;
22786;SDS011;63134;52.020;4.714;2023-03-01T10:29:38;12.60;;;8.98;;
22786;SDS011;63134;52.020;4.714;2023-03-01T10:32:31;12.75;;;8.32;;
22786;SDS011;63134;52.020;4.714;2023-03-01T10:35:21;12.93;;;8.88;;
22786;SDS011;63134;52.020;4.714;2023-03-01T10:38:12;15.15;;;8.70;;
22786;SDS011;63134;52.020;4.714;2023-03-01T10:41:00;13.75;;;8.25;;
22786;SDS011;63134;52.020;4.714;2023-03-01T10:43:54;13.50;;;9.43;;
22786;SDS011;63134;52.020;4.714;2023-03-01T10:46:41;13.48;;;9.10;;
22786;SDS011;63134;52.020;4.714;2023-03-01T10:49:27;13.68;;;8.00;;
22786;SDS011;63134;52.020;4.714;2023-03-01T10:52:20;18.02;;;9.48;;
22786;SDS011;63134;52.020;4.714;2023-03-01T10:55:24;21.85;;;10.15;;
22786;SDS011;63134;52.020;4.714;2023-03-01T10:58:36;16.10;;;9.80;;
22786;SDS011;63134;52.020;4.714;2023-03-01T11:01:24;11.95;;;7.72;;
22786;SDS011;63134;52.020;4.714;2023-03-01T11:04:27;12.90;;;7.95;;
22786;SDS011;63134;52.020;4.714;2023-03-01T11:07:13;11.77;;;7.70;;
22786;SDS011;63134;52.020;4.714;2023-03-01T11:09:58;13.38;;;8.07;;
22786;SDS011;63134;52.020;4.714;2023-03-01T11:12:44;11.50;;;7.20;;
22786;SDS011;63134;52.020;4.714;2023-03-01T11:15:29;10.25;;;6.28;;
22786;SDS011;63134;52.020;4.714;2023-03-01T11:18:18;8.32;;;6.25;;
22786;SDS011;63134;52.020;4.714;2023-03-01T11:21:06;10.40;;;6.90;;
22786;SDS011;63134;52.020;4.714;2023-03-01T11:23:53;10.23;;;6.38;;
22786;SDS011;63134;52.020;4.714;2023-03-01T11:26:40;12.38;;;6.30;;
22786;SDS011;63134;52.020;4.714;2023-03-01T11:29:41;11.23;;;6.03;;
22786;SDS011;63134;52.020;4.714;2023-03-01T11:32:38;9.63;;;5.70;;
22786;SDS011;63134;52.020;4.714;2023-03-01T11:35:35;9.30;;;5.50;;
22786;SDS011;63134;52.020;4.714;2023-03-01T11:38:27;10.65;;;5.75;;
22786;SDS011;63134;52.020;4.714;2023-03-01T11:41:18;9.05;;;5.78;;
22786;SDS011;63134;52.020;4.714;2023-03-01T11:44:26;7.20;;;5.30;;
22786;SDS011;63134;52.020;4.714;2023-03-01T11:47:20;7.35;;;4.57;;
22786;SDS011;63134;52.020;4.714;2023-03-01T11:56:38;5.15;;;4.65;;
22786;SDS011;63134;52.020;4.714;2023-03-01T12:15:29;6.57;;;4.88;;
22786;SDS011;63134;52.020;4.714;2023-03-01T12:21:55;6.60;;;4.90;;
22786;SDS011;63134;52.020;4.714;2023-03-01T12:34:31;7.22;;;4.95;;
22786;SDS011;63134;52.020;4.714;2023-03-01T12:47:15;4.57;;;3.88;;
22786;SDS011;63134;52.020;4.714;2023-03-01T12:50:25;4.78;;;3.95;;
22786;SDS011;63134;52.020;4.714;2023-03-01T12:53:47;9.48;;;4.57;;
22786;SDS011;63134;52.020;4.714;2023-03-01T12:56:34;6.22;;;4.38;;
22786;SDS011;63134;52.020;4.714;2023-03-01T12:59:38;5.25;;;4.07;;
22786;SDS011;63134;52.020;4.714;2023-03-01T13:02:38;5.95;;;4.32;;
22786;SDS011;63134;52.020;4.714;2023-03-01T13:08:43;5.47;;;4.53;;
22786;SDS011;63134;52.020;4.714;2023-03-01T13:11:35;5.47;;;3.85;;
22786;SDS011;63134;52.020;4.714;2023-03-01T13:17:28;10.30;;;4.63;;
22786;SDS011;63134;52.020;4.714;2023-03-01T13:20:17;6.72;;;4.00;;
22786;SDS011;63134;52.020;4.714;2023-03-01T13:23:06;6.38;;;4.13;;
22786;SDS011;63134;52.020;4.714;2023-03-01T13:37:48;6.45;;;4.25;;
22786;SDS011;63134;52.020;4.714;2023-03-01T13:43:22;4.82;;;4.30;;
22786;SDS011;63134;52.020;4.714;2023-03-01T13:46:21;6.30;;;3.83;;
22786;SDS011;63134;52.020;4.714;2023-03-01T13:49:09;4.95;;;4.07;;
22786;SDS011;63134;52.020;4.714;2023-03-01T13:52:01;6.05;;;4.65;;
22786;SDS011;63134;52.020;4.714;2023-03-01T13:55:16;5.82;;;4.18;;
22786;SDS011;63134;52.020;4.714;2023-03-01T13:58:16;5.85;;;4.57;;
22786;SDS011;63134;52.020;4.714;2023-03-01T14:01:07;5.82;;;4.38;;
22786;SDS011;63134;52.020;4.714;2023-03-01T14:07:24;7.93;;;4.88;;
22786;SDS011;63134;52.020;4.714;2023-03-01T14:10:11;5.10;;;4.15;;
22786;SDS011;63134;52.020;4.714;2023-03-01T14:16:07;5.63;;;4.72;;
22786;SDS011;63134;52.020;4.714;2023-03-01T14:25:06;5.70;;;4.13;;
22786;SDS011;63134;52.020;4.714;2023-03-01T14:28:19;4.45;;;3.67;;
22786;SDS011;63134;52.020;4.714;2023-03-01T14:34:30;5.05;;;3.92;;
22786;SDS011;63134;52.020;4.714;2023-03-01T14:37:22;5.07;;;4.05;;
22786;SDS011;63134;52.020;4.714;2023-03-01T14:40:19;6.07;;;3.42;;
22786;SDS011;63134;52.020;4.714;2023-03-01T14:43:15;4.38;;;3.70;;
22786;SDS011;63134;52.020;4.714;2023-03-01T14:46:05;5.85;;;3.65;;
22786;SDS011;63134;52.020;4.714;2023-03-01T14:52:18;5.97;;;3.97;;
22786;SDS011;63134;52.020;4.714;2023-03-01T14:55:24;6.00;;;4.20;;
22786;SDS011;63134;52.020;4.714;2023-03-01T14:58:32;6.57;;;3.65;;
22786;SDS011;63134;52.020;4.714;2023-03-01T15:01:18;4.35;;;3.80;;
22786;SDS011;63134;52.020;4.714;2023-03-01T15:04:04;4.68;;;3.88;;
22786;SDS011;63134;52.020;4.714;2023-03-01T15:06:56;6.63;;;3.53;;
22786;SDS011;63134;52.020;4.714;2023-03-01T15:09:49;4.38;;;3.70;;
22786;SDS011;63134;52.020;4.714;2023-03-01T15:12:37;8.10;;;4.20;;
22786;SDS011;63134;52.020;4.714;2023-03-01T15:18:22;5.22;;;3.45;;
22786;SDS011;63134;52.020;4.714;2023-03-01T15:21:16;3.90;;;3.35;;
22786;SDS011;63134;52.020;4.714;2023-03-01T15:27:05;5.68;;;3.67;;
22786;SDS011;63134;52.020;4.714;2023-03-01T15:29:59;5.28;;;3.53;;
22786;SDS011;63134;52.020;4.714;2023-03-01T15:33:15;4.32;;;3.78;;
22786;SDS011;63134;52.020;4.714;2023-03-01T15:42:47;6.13;;;3.60;;
22786;SDS011;63134;52.020;4.714;2023-03-01T15:45:33;6.18;;;4.13;;
22786;SDS011;63134;52.020;4.714;2023-03-01T15:48:19;4.15;;;3.40;;
22786;SDS011;63134;52.020;4.714;2023-03-01T15:51:09;7.18;;;4.18;;
22786;SDS011;63134;52.020;4.714;2023-03-01T15:54:02;6.03;;;4.20;;
22786;SDS011;63134;52.020;4.714;2023-03-01T15:56:57;5.93;;;3.90;;
22786;SDS011;63134;52.020;4.714;2023-03-01T15:59:43;4.53;;;3.70;;
22786;SDS011;63134;52.020;4.714;2023-03-01T16:02:29;8.73;;;4.55;;
22786;SDS011;63134;52.020;4.714;2023-03-01T16:05:16;4.65;;;3.72;;
22786;SDS011;63134;52.020;4.714;2023-03-01T16:08:04;6.18;;;4.10;;
22786;SDS011;63134;52.020;4.714;2023-03-01T16:10:51;4.22;;;3.83;;
22786;SDS011;63134;52.020;4.714;2023-03-01T16:13:38;6.75;;;3.83;;
22786;SDS011;63134;52.020;4.714;2023-03-01T16:16:23;6.93;;;3.72;;
22786;SDS011;63134;52.020;4.714;2023-03-01T16:19:09;5.93;;;4.07;;
22786;SDS011;63134;52.020;4.714;2023-03-01T16:21:55;6.35;;;4.05;;
22786;SDS011;63134;52.020;4.714;2023-03-01T16:24:40;5.35;;;4.70;;
22786;SDS011;63134;52.020;4.714;2023-03-01T16:27:26;6.18;;;4.88;;
22786;SDS011;63134;52.020;4.714;2023-03-01T16:30:12;7.68;;;5.90;;
22786;SDS011;63134;52.020;4.714;2023-03-01T16:32:59;7.78;;;6.03;;
22786;SDS011;63134;52.020;4.714;2023-03-01T16:35:44;6.30;;;5.10;;
22786;SDS011;63134;52.020;4.714;2023-03-01T16:38:30;5.80;;;4.78;;
22786;SDS011;63134;52.020;4.714;2023-03-01T16:41:19;7.85;;;5.05;;
22786;SDS011;63134;52.020;4.714;2023-03-01T16:44:06;5.18;;;4.68;;
22786;SDS011;63134;52.020;4.714;2023-03-01T16:46:51;5.45;;;4.90;;
22786;SDS011;63134;52.020;4.714;2023-03-01T16:49:37;6.80;;;5.18;;
22786;SDS011;63134;52.020;4.714;2023-03-01T16:52:22;5.97;;;4.68;;
22786;SDS011;63134;52.020;4.714;2023-03-01T16:55:08;7.00;;;4.78;;
22786;SDS011;63134;52.020;4.714;2023-03-01T16:57:54;7.53;;;5.00;;
22786;SDS011;63134;52.020;4.714;2023-03-01T17:00:40;7.55;;;4.85;;
22786;SDS011;63134;52.020;4.714;2023-03-01T17:03:26;7.88;;;5.03;;
22786;SDS011;63134;52.020;4.714;2023-03-01T17:06:17;7.90;;;5.40;;
22786;SDS011;63134;52.020;4.714;2023-03-01T17:09:05;7.57;;;4.75;;
22786;SDS011;63134;52.020;4.714;2023-03-01T17:11:51;7.43;;;5.03;;
22786;SDS011;63134;52.020;4.714;2023-03-01T17:14:36;10.45;;;5.43;;
22786;SDS011;63134;52.020;4.714;2023-03-01T17:17:23;7.30;;;5.18;;
22786;SDS011;63134;52.020;4.714;2023-03-01T17:20:09;9.52;;;5.72;;
22786;SDS011;63134;52.020;4.714;2023-03-01T17:22:55;8.73;;;5.72;;
22786;SDS011;63134;52.020;4.714;2023-03-01T17:25:41;9.38;;;5.85;;
22786;SDS011;63134;52.020;4.714;2023-03-01T17:28:31;9.77;;;6.15;;
22786;SDS011;63134;52.020;4.714;2023-03-01T17:31:18;8.55;;;6.07;;
22786;SDS011;63134;52.020;4.714;2023-03-01T17:34:04;9.10;;;6.13;;
22786;SDS011;63134;52.020;4.714;2023-03-01T17:36:49;10.35;;;6.72;;
22786;SDS011;63134;52.020;4.714;2023-03-01T17:39:36;12.55;;;6.82;;
22786;SDS011;63134;52.020;4.714;2023-03-01T17:42:21;11.00;;;6.60;;
22786;SDS011;63134;52.020;4.714;2023-03-01T17:45:07;13.63;;;6.72;;
22786;SDS011;63134;52.020;4.714;2023-03-01T17:47:53;11.93;;;6.72;;
22786;SDS011;63134;52.020;4.714;2023-03-01T17:50:39;12.55;;;6.57;;
22786;SDS011;63134;52.020;4.714;2023-03-01T17:53:27;9.60;;;6.60;;
22786;SDS011;63134;52.020;4.714;2023-03-01T17:56:13;8.57;;;6.53;;
22786;SDS011;63134;52.020;4.714;2023-03-01T17:59:02;11.88;;;7.35;;
22786;SDS011;63134;52.020;4.714;2023-03-01T18:01:48;11.70;;;7.60;;
22786;SDS011;63134;52.020;4.714;2023-03-01T18:04:34;13.80;;;6.65;;
22786;SDS011;63134;52.020;4.714;2023-03-01T18:07:20;10.88;;;6.32;;
22786;SDS011;63134;52.020;4.714;2023-03-01T18:10:05;13.93;;;6.90;;
22786;SDS011;63134;52.020;4.714;2023-03-01T18:12:51;12.35;;;7.70;;
22786;SDS011;63134;52.020;4.714;2023-03-01T18:15:40;10.98;;;7.28;;
22786;SDS011;63134;52.020;4.714;2023-03-01T18:18:26;14.27;;;7.63;;
22786;SDS011;63134;52.020;4.714;2023-03-01T18:21:13;12.23;;;7.63;;
22786;SDS011;63134;52.020;4.714;2023-03-01T18:23:59;14.20;;;8.30;;
22786;SDS011;63134;52.020;4.714;2023-03-01T18:26:45;10.38;;;7.38;;
22786;SDS011;63134;52.020;4.714;2023-03-01T18:29:30;15.13;;;8.23;;
22786;SDS011;63134;52.020;4.714;2023-03-01T18:32:17;13.63;;;7.82;;
22786;SDS011;63134;52.020;4.714;2023-03-01T18:35:03;13.55;;;7.97;;
22786;SDS011;63134;52.020;4.714;2023-03-01T18:37:49;14.10;;;7.80;;
22786;SDS011;63134;52.020;4.714;2023-03-01T18:40:37;11.02;;;8.27;;
22786;SDS011;63134;52.020;4.714;2023-03-01T18:43:24;12.77;;;8.27;;
22786;SDS011;63134;52.020;4.714;2023-03-01T18:46:12;12.95;;;8.80;;
22786;SDS011;63134;52.020;4.714;2023-03-01T18:48:58;16.15;;;8.95;;